createdAt,value
2023-02-04T00:02:40.003Z,10.44
2023-02-04T00:07:41.633Z,10.39
2023-02-04T00:12:42.958Z,10.31
2023-02-04T00:17:44.276Z,10.12
2023-02-04T00:22:45.754Z,10.15
2023-02-04T00:27:47.136Z,10.07
2023-02-04T00:32:48.547Z,10.06
2023-02-04T00:37:50.626Z,9.94
2023-02-04T00:42:52.340Z,9.99
2023-02-04T00:47:53.696Z,10.00
2023-02-04T00:52:55.052Z,9.93
2023-02-04T00:57:56.381Z,9.95
2023-02-04T01:02:57.706Z,10.10
2023-02-04T01:07:59.055Z,10.06
2023-02-04T01:13:00.802Z,10.09
2023-02-04T01:18:02.541Z,10.07
2023-02-04T01:23:03.853Z,9.92
2023-02-04T01:28:05.193Z,10.01
2023-02-04T01:33:06.556Z,10.08
2023-02-04T01:38:07.903Z,10.03
2023-02-04T01:43:10.980Z,10.03
2023-02-04T01:48:14.081Z,10.07
2023-02-04T01:53:20.447Z,9.99
2023-02-04T01:58:21.774Z,10.15
2023-02-04T02:03:23.253Z,10.21
2023-02-04T02:08:24.621Z,10.38
2023-02-04T02:13:25.957Z,10.30
2023-02-04T02:18:27.353Z,10.20
2023-02-04T02:23:48.014Z,10.19
2023-02-04T02:28:50.513Z,10.19
2023-02-04T02:33:52.020Z,10.07
2023-02-04T02:38:53.557Z,9.92
2023-02-04T02:43:54.920Z,9.83
2023-02-04T02:48:56.374Z,9.80
2023-02-04T02:53:58.199Z,9.81
2023-02-04T02:59:13.174Z,9.89
2023-02-04T03:04:16.986Z,9.80
2023-02-04T03:09:19.004Z,9.74
2023-02-04T03:14:22.310Z,9.65
2023-02-04T03:19:25.934Z,9.56
2023-02-04T03:24:27.282Z,9.39
2023-02-04T03:29:29.849Z,9.45
2023-02-04T03:34:31.308Z,9.52
2023-02-04T03:39:32.640Z,9.40
2023-02-04T03:44:34.015Z,9.38
2023-02-04T03:49:36.071Z,9.44
2023-02-04T03:54:37.418Z,9.51
2023-02-04T03:59:39.042Z,9.44
2023-02-04T04:04:40.429Z,9.27
2023-02-04T04:09:41.779Z,9.37
2023-02-04T04:14:43.093Z,9.38
2023-02-04T04:19:46.497Z,9.39
2023-02-04T04:24:47.863Z,9.26
2023-02-04T04:29:49.167Z,9.06
2023-02-04T04:34:50.537Z,8.99
2023-02-04T04:39:51.877Z,8.89
2023-02-04T04:44:53.189Z,8.83
2023-02-04T04:49:54.516Z,8.90
2023-02-04T04:54:55.869Z,8.82
2023-02-04T04:59:57.338Z,8.80
2023-02-04T05:04:58.706Z,8.94
2023-02-04T05:10:00.169Z,9.06
2023-02-04T05:15:01.586Z,8.96
2023-02-04T05:20:03.897Z,9.00
2023-02-04T05:25:05.578Z,9.00
2023-02-04T05:30:07.362Z,9.08
2023-02-04T05:35:08.752Z,9.20
2023-02-04T05:40:10.533Z,9.32
2023-02-04T05:45:15.837Z,9.38
2023-02-04T05:50:17.303Z,9.38
2023-02-04T05:55:18.642Z,9.35
2023-02-04T06:00:20.353Z,9.45
2023-02-04T06:05:23.022Z,9.37
2023-02-04T06:10:24.366Z,9.37
2023-02-04T06:15:25.715Z,9.33
2023-02-04T06:20:27.112Z,9.29
2023-02-04T06:25:28.474Z,9.11
2023-02-04T06:30:30.042Z,9.10
2023-02-04T06:35:31.665Z,9.06
2023-02-04T06:40:33.273Z,9.09
2023-02-04T06:45:35.816Z,8.95
2023-02-04T06:50:37.199Z,8.99
2023-02-04T06:55:38.905Z,9.09
2023-02-04T07:00:40.237Z,9.00
2023-02-04T07:05:41.562Z,8.89
2023-02-04T07:10:42.873Z,8.90
2023-02-04T07:15:44.233Z,8.97
2023-02-04T07:20:46.066Z,9.03
2023-02-04T07:25:47.393Z,9.10
2023-02-04T07:30:48.872Z,9.10
2023-02-04T07:35:50.297Z,9.05
2023-02-04T07:40:51.687Z,9.03
2023-02-04T07:45:53.433Z,8.83
2023-02-04T07:50:54.756Z,8.97
2023-02-04T07:55:56.106Z,8.98
2023-02-04T08:00:57.437Z,9.05
2023-02-04T08:05:58.751Z,8.93
2023-02-04T08:11:00.348Z,8.91
2023-02-04T08:16:01.840Z,9.13
2023-02-04T08:21:04.821Z,9.38
2023-02-04T08:26:06.360Z,9.48
2023-02-04T08:31:11.797Z,9.60
2023-02-04T08:36:13.242Z,9.65
2023-02-04T08:41:14.584Z,9.70
2023-02-04T08:46:16.060Z,9.76
2023-02-04T08:51:17.498Z,9.83
2023-02-04T08:56:20.419Z,9.92
2023-02-04T09:01:21.918Z,10.16
2023-02-04T09:06:23.326Z,10.32
2023-02-04T09:11:24.686Z,10.42
2023-02-04T09:16:26.045Z,10.65
2023-02-04T09:21:27.686Z,10.80
2023-02-04T09:26:29.036Z,10.99
2023-02-04T09:31:30.658Z,11.02
2023-02-04T09:36:37.693Z,11.21
2023-02-04T09:41:40.532Z,11.31
2023-02-04T09:46:46.904Z,11.48
2023-02-04T09:51:49.801Z,11.36
2023-02-04T09:56:52.447Z,11.21
2023-02-04T10:02:02.673Z,11.17
2023-02-04T10:07:11.928Z,11.21
2023-02-04T10:12:13.358Z,11.31
2023-02-04T10:17:20.292Z,11.37
2023-02-04T10:22:22.365Z,11.43
2023-02-04T10:27:23.701Z,11.52
2023-02-04T10:32:31.457Z,11.61
2023-02-04T10:37:32.964Z,11.74
2023-02-04T10:42:34.351Z,11.87
2023-02-04T10:47:35.895Z,12.04
2023-02-04T10:52:41.086Z,11.97
2023-02-04T10:57:45.614Z,11.93
2023-02-04T11:03:03.618Z,11.90
2023-02-04T11:08:25.307Z,12.04
2023-02-04T11:13:39.285Z,11.97
2023-02-04T11:18:48.815Z,12.03
2023-02-04T11:23:50.532Z,12.09
2023-02-04T11:29:00.762Z,12.02
2023-02-04T11:34:11.373Z,12.08
2023-02-04T11:39:16.925Z,11.95
2023-02-04T11:44:19.049Z,12.11
2023-02-04T11:49:21.099Z,12.20
2023-02-04T11:54:23.510Z,12.26
2023-02-04T11:59:24.930Z,12.35
2023-02-04T12:04:26.312Z,12.44
2023-02-04T12:09:30.099Z,12.43
2023-02-04T12:14:41.696Z,12.44
2023-02-04T12:19:43.140Z,12.54
2023-02-04T12:24:44.973Z,12.58
2023-02-04T12:29:46.473Z,12.65
2023-02-04T12:34:47.797Z,12.85
2023-02-04T12:39:49.130Z,13.19
2023-02-04T12:44:50.453Z,13.21
2023-02-04T12:49:51.787Z,13.41
2023-02-04T12:54:53.171Z,13.53
2023-02-04T12:59:57.694Z,13.50
2023-02-04T13:04:58.992Z,13.60
2023-02-04T13:10:00.940Z,13.51
2023-02-04T13:15:03.133Z,13.40
2023-02-04T13:20:05.688Z,13.39
2023-02-04T13:25:07.352Z,13.42
2023-02-04T13:30:10.847Z,13.46
2023-02-04T13:35:12.191Z,13.48
2023-02-04T13:40:13.690Z,13.37
2023-02-04T13:45:16.186Z,13.36
2023-02-04T13:50:17.773Z,13.34
2023-02-04T13:55:19.114Z,13.28
2023-02-04T14:00:20.615Z,13.26
2023-02-04T14:05:22.033Z,13.03
2023-02-04T14:10:24.914Z,12.85
2023-02-04T14:15:26.318Z,12.75
2023-02-04T14:20:27.643Z,12.59
2023-02-04T14:25:29.007Z,12.35
2023-02-04T14:30:31.773Z,12.24
2023-02-04T14:35:33.454Z,12.26
2023-02-04T14:40:35.072Z,12.24
2023-02-04T14:45:37.827Z,12.18
2023-02-04T14:50:39.186Z,12.13
2023-02-04T14:55:40.528Z,12.09
2023-02-04T15:00:41.854Z,12.03
2023-02-04T15:05:43.231Z,12.06
2023-02-04T15:10:44.636Z,12.07
2023-02-04T15:15:46.133Z,12.03
2023-02-04T15:20:47.855Z,11.98
2023-02-04T15:25:51.472Z,11.92
2023-02-04T15:30:53.374Z,11.80
2023-02-04T15:35:54.753Z,11.71
2023-02-04T15:40:56.081Z,11.53
2023-02-04T15:45:57.943Z,11.42
2023-02-04T15:50:59.322Z,11.29
2023-02-04T15:56:01.083Z,11.10
2023-02-04T16:01:02.505Z,11.00
2023-02-04T16:06:05.114Z,10.91
2023-02-04T16:11:06.463Z,10.82
2023-02-04T16:16:08.188Z,10.75
2023-02-04T16:21:09.566Z,10.62
2023-02-04T16:26:11.016Z,10.54
2023-02-04T16:31:12.794Z,10.41
2023-02-04T16:36:14.253Z,10.24
2023-02-04T16:41:15.615Z,10.13
2023-02-04T16:46:17.887Z,9.92
2023-02-04T16:51:20.344Z,9.84
2023-02-04T16:56:21.763Z,9.71
2023-02-04T17:01:23.147Z,9.58
2023-02-04T17:06:26.762Z,9.51
2023-02-04T17:11:31.511Z,9.41
2023-02-04T17:16:33.184Z,9.37
2023-02-04T17:21:35.044Z,9.34
2023-02-04T17:26:39.306Z,9.28
2023-02-04T17:31:43.107Z,9.25
2023-02-04T17:36:44.478Z,9.24
2023-02-04T17:41:45.875Z,9.24
2023-02-04T17:46:47.244Z,9.24
2023-02-04T17:51:48.638Z,9.19
2023-02-04T17:56:50.170Z,9.16
2023-02-04T18:01:51.643Z,9.14
2023-02-04T18:06:53.259Z,9.08
2023-02-04T18:11:54.579Z,9.05
2023-02-04T18:16:58.560Z,9.05
2023-02-04T18:21:59.956Z,9.06
2023-02-04T18:27:11.441Z,9.05
2023-02-04T18:32:20.862Z,9.04
2023-02-04T18:37:35.514Z,8.97
2023-02-04T18:42:43.086Z,8.77
2023-02-04T18:47:45.730Z,8.80
2023-02-04T18:52:47.040Z,8.82
2023-02-04T18:57:48.410Z,8.83
2023-02-04T19:02:56.241Z,8.85
2023-02-04T19:08:43.788Z,8.82
2023-02-04T19:13:45.239Z,8.73
2023-02-04T19:18:47.223Z,8.58
2023-02-04T19:23:50.168Z,8.64
2023-02-04T19:28:52.278Z,8.68
2023-02-04T19:33:55.280Z,8.73
2023-02-04T19:39:00.563Z,8.72
2023-02-04T19:44:14.178Z,8.71
2023-02-04T19:49:25.772Z,8.72
2023-02-04T19:54:39.483Z,8.74
2023-02-04T19:59:41.037Z,8.77
2023-02-04T20:04:45.485Z,8.73
2023-02-04T20:09:46.970Z,8.71
2023-02-04T20:14:49.927Z,8.69
2023-02-04T20:19:51.477Z,8.67
2023-02-04T20:25:18.852Z,8.70
2023-02-04T20:30:25.417Z,8.73
2023-02-04T20:35:31.827Z,8.72
2023-02-04T20:40:36.199Z,8.69
2023-02-04T20:45:44.350Z,8.63
2023-02-04T20:50:51.915Z,8.68
2023-02-04T20:56:03.613Z,8.68
2023-02-04T21:01:27.664Z,8.64
2023-02-04T21:06:31.890Z,8.62
2023-02-04T21:11:33.370Z,8.61
2023-02-04T21:16:34.828Z,8.58
2023-02-04T21:21:36.290Z,8.50
2023-02-04T21:26:37.723Z,8.48
2023-02-04T21:31:39.489Z,8.44
2023-02-04T21:36:41.004Z,8.40
2023-02-04T21:41:42.350Z,8.32
2023-02-04T21:46:43.699Z,8.27
2023-02-04T21:51:45.046Z,8.26
2023-02-04T21:56:46.348Z,8.25
2023-02-04T22:01:47.701Z,8.24
2023-02-04T22:06:49.059Z,8.23
2023-02-04T22:11:50.394Z,8.23
2023-02-04T22:16:51.732Z,8.25
2023-02-04T22:21:53.031Z,8.22
2023-02-04T22:26:54.356Z,8.20
2023-02-04T22:31:56.217Z,8.14
2023-02-04T22:36:57.720Z,8.13
2023-02-04T22:41:59.042Z,8.09
2023-02-04T22:47:00.388Z,8.04
2023-02-04T22:52:03.090Z,7.95
2023-02-04T22:57:04.457Z,7.86
2023-02-04T23:02:05.834Z,7.79
2023-02-04T23:07:08.355Z,7.68
2023-02-04T23:12:12.787Z,7.52
2023-02-04T23:17:15.833Z,7.30
2023-02-04T23:22:17.283Z,7.15
2023-02-04T23:27:18.772Z,7.14
2023-02-04T23:32:20.129Z,6.95
2023-02-04T23:37:21.553Z,6.92
2023-02-04T23:42:22.903Z,6.98
2023-02-04T23:47:25.281Z,6.98
2023-02-04T23:52:26.628Z,6.92
2023-02-04T23:57:27.954Z,6.85
